Time;durP1;ratioP1;P1;durP2;ratioP2;P2;SDS_P1;SDS_P2;PMS_P1;PMS_P2;Temp;Humidity;BMP_temperature;BMP_pressure;BME280_temperature;BME280_humidity;BME280_pressure;Samples;Min_cycle;Max_cycle;Signal;HPM_P1;HPM_P2
2023/10/08 00:02:27;;;;;;;5.60;3.47;;;;;;;;;;5081496;27;89989;-53
2023/10/08 00:04:55;;;;;;;5.47;3.43;;;;;;;;;;5080638;27;87492;-53
2023/10/08 00:07:25;;;;;;;9.63;3.97;;;;;;;;;;5080119;27;87834;-54
2023/10/08 00:09:53;;;;;;;7.83;4.27;;;;;;;;;;5080411;27;87799;-55
2023/10/08 00:12:22;;;;;;;9.23;3.90;;;;;;;;;;5080539;27;87624;-54
2023/10/08 00:14:52;;;;;;;5.30;3.70;;;;;;;;;;5080415;27;89063;-54
2023/10/08 00:17:21;;;;;;;6.83;4.90;;;;;;;;;;5080600;27;88861;-54
2023/10/08 00:19:52;;;;;;;6.57;3.70;;;;;;;;;;5062370;27;87599;-54
2023/10/08 00:22:24;;;;;;;5.73;3.63;;;;;;;;;;5080788;27;88658;-53
2023/10/08 00:24:58;;;;;;;5.33;3.40;;;;;;;;;;5080879;27;88039;-53
2023/10/08 00:27:26;;;;;;;6.40;3.43;;;;;;;;;;5080215;27;87467;-54
2023/10/08 00:29:56;;;;;;;6.97;3.50;;;;;;;;;;5080363;27;87671;-54
2023/10/08 00:32:24;;;;;;;6.00;3.10;;;;;;;;;;5080324;27;88539;-54
2023/10/08 00:34:54;;;;;;;5.80;3.07;;;;;;;;;;5082958;27;89356;-54
2023/10/08 00:37:26;;;;;;;5.77;3.27;;;;;;;;;;5084178;27;89785;-54
2023/10/08 00:39:57;;;;;;;5.90;3.30;;;;;;;;;;5084451;27;87535;-54
2023/10/08 00:42:28;;;;;;;4.67;3.10;;;;;;;;;;5083648;27;90330;-54
2023/10/08 00:44:56;;;;;;;4.43;2.77;;;;;;;;;;5083859;27;88111;-53
2023/10/08 00:47:27;;;;;;;4.70;3.20;;;;;;;;;;5083781;27;87770;-54
2023/10/08 00:50:04;;;;;;;6.70;3.37;;;;;;;;;;5083772;27;87534;-53
2023/10/08 00:52:41;;;;;;;5.30;3.23;;;;;;;;;;5083467;27;88406;-54
2023/10/08 00:55:20;;;;;;;5.70;3.60;;;;;;;;;;5084014;27;87823;-53
2023/10/08 00:57:53;;;;;;;3.90;3.00;;;;;;;;;;5063047;27;87914;-53
2023/10/08 01:00:22;;;;;;;12.60;4.77;;;;;;;;;;5076354;27;88090;-54
2023/10/08 01:03:00;;;;;;;5.00;3.23;;;;;;;;;;5083442;27;89699;-54
2023/10/08 01:05:46;;;;;;;8.03;4.23;;;;;;;;;;5083822;27;88299;-54
2023/10/08 01:08:22;;;;;;;4.30;3.00;;;;;;;;;;5083806;27;87800;-53
2023/10/08 01:11:00;;;;;;;6.40;3.70;;;;;;;;;;5083738;27;87511;-54
2023/10/08 01:13:36;;;;;;;8.43;3.63;;;;;;;;;;5083543;27;88611;-55
2023/10/08 01:16:05;;;;;;;3.83;3.03;;;;;;;;;;5083488;27;87939;-54
2023/10/08 01:18:35;;;;;;;9.03;3.80;;;;;;;;;;5083845;27;87821;-55
2023/10/08 01:21:08;;;;;;;7.10;3.80;;;;;;;;;;5082859;27;87655;-54
2023/10/08 01:23:39;;;;;;;7.73;3.63;;;;;;;;;;5083561;27;89793;-53
2023/10/08 01:26:11;;;;;;;5.10;3.90;;;;;;;;;;5082733;27;89012;-54
2023/10/08 01:28:42;;;;;;;7.73;3.80;;;;;;;;;;5083710;27;88723;-54
2023/10/08 01:31:12;;;;;;;9.53;4.00;;;;;;;;;;5083675;27;87542;-54
2023/10/08 01:33:47;;;;;;;7.87;4.07;;;;;;;;;;5082828;27;88564;-54
2023/10/08 01:36:15;;;;;;;7.10;3.70;;;;;;;;;;5083473;27;87442;-54
2023/10/08 01:38:48;;;;;;;5.97;3.60;;;;;;;;;;5083232;27;88698;-54
2023/10/08 01:41:19;;;;;;;6.20;3.90;;;;;;;;;;5083346;27;87637;-54
2023/10/08 01:43:49;;;;;;;6.20;4.10;;;;;;;;;;5083381;27;89169;-53
2023/10/08 01:46:21;;;;;;;7.03;4.40;;;;;;;;;;5082688;27;88162;-53
2023/10/08 01:48:55;;;;;;;8.30;4.77;;;;;;;;;;5083454;27;87735;-53
2023/10/08 01:51:28;;;;;;;8.63;3.80;;;;;;;;;;5082599;27;87880;-53
2023/10/08 01:53:59;;;;;;;7.67;4.53;;;;;;;;;;5082877;27;89576;-54
2023/10/08 01:56:27;;;;;;;7.13;4.00;;;;;;;;;;5082754;27;89099;-53
2023/10/08 01:58:56;;;;;;;6.47;4.03;;;;;;;;;;5082969;27;87563;-53
2023/10/08 02:01:24;;;;;;;8.43;4.73;;;;;;;;;;5083628;27;87704;-53
2023/10/08 02:03:52;;;;;;;8.50;4.93;;;;;;;;;;5082921;27;89673;-53
2023/10/08 02:06:21;;;;;;;6.63;4.63;;;;;;;;;;5082023;27;88083;-52
2023/10/08 02:08:49;;;;;;;10.80;4.93;;;;;;;;;;5082629;27;87863;-52
2023/10/08 02:11:20;;;;;;;7.13;4.67;;;;;;;;;;5082291;27;87738;-54
2023/10/08 02:13:48;;;;;;;11.03;5.33;;;;;;;;;;5082584;27;90506;-53
2023/10/08 02:16:19;;;;;;;8.17;5.67;;;;;;;;;;5081880;27;90021;-52
2023/10/08 02:18:49;;;;;;;11.13;6.03;;;;;;;;;;5082598;27;89907;-53
2023/10/08 02:21:19;;;;;;;11.57;6.13;;;;;;;;;;5083198;27;87467;-52
2023/10/08 02:23:48;;;;;;;9.37;5.90;;;;;;;;;;5082776;27;88578;-53
2023/10/08 02:26:19;;;;;;;9.47;5.83;;;;;;;;;;5082206;27;88244;-53
2023/10/08 02:28:50;;;;;;;10.83;6.77;;;;;;;;;;5082540;27;87702;-53
2023/10/08 02:31:19;;;;;;;10.10;6.90;;;;;;;;;;5083147;27;87624;-54
2023/10/08 02:33:47;;;;;;;10.87;6.20;;;;;;;;;;5082787;27;89671;-53
2023/10/08 02:36:16;;;;;;;11.50;7.63;;;;;;;;;;5081855;27;88139;-53
2023/10/08 02:38:44;;;;;;;13.43;7.70;;;;;;;;;;5073728;27;88213;-54
2023/10/08 02:41:17;;;;;;;16.67;7.67;;;;;;;;;;5069960;27;87887;-54
2023/10/08 02:43:48;;;;;;;17.70;9.23;;;;;;;;;;5074803;27;87244;-53
2023/10/08 02:46:18;;;;;;;13.17;8.33;;;;;;;;;;5070397;27;89192;-53
2023/10/08 02:48:47;;;;;;;13.93;8.13;;;;;;;;;;5070023;27;88803;-53
2023/10/08 02:51:16;;;;;;;15.30;8.77;;;;;;;;;;5071901;27;87683;-53
2023/10/08 02:53:46;;;;;;;13.20;8.90;;;;;;;;;;5071750;27;88000;-53
2023/10/08 02:56:15;;;;;;;19.30;10.30;;;;;;;;;;5068075;27;89062;-53
2023/10/08 02:58:44;;;;;;;17.40;9.93;;;;;;;;;;5070970;27;87869;-53
2023/10/08 03:01:13;;;;;;;17.37;9.63;;;;;;;;;;5070253;27;87665;-54
2023/10/08 03:03:43;;;;;;;18.80;11.10;;;;;;;;;;5068440;27;89633;-53
2023/10/08 03:06:14;;;;;;;14.90;10.00;;;;;;;;;;5071668;27;90774;-53
2023/10/08 03:08:43;;;;;;;17.80;10.53;;;;;;;;;;5069620;27;90018;-53
2023/10/08 03:11:17;;;;;;;22.97;12.67;;;;;;;;;;5070523;27;87499;-54
2023/10/08 03:13:46;;;;;;;21.63;13.00;;;;;;;;;;5071513;27;88615;-53
2023/10/08 03:16:15;;;;;;;22.13;14.07;;;;;;;;;;5069815;27;88089;-53
2023/10/08 03:18:50;;;;;;;22.73;13.33;;;;;;;;;;5073414;27;87893;-53
2023/10/08 03:21:22;;;;;;;23.80;14.33;;;;;;;;;;5080800;27;87541;-53
2023/10/08 03:23:58;;;;;;;25.57;15.17;;;;;;;;;;5076770;27;89648;-53
2023/10/08 03:26:35;;;;;;;28.30;16.93;;;;;;;;;;5079272;27;87973;-53
2023/10/08 03:29:07;;;;;;;25.47;15.40;;;;;;;;;;5079499;27;88750;-54
2023/10/08 03:31:49;;;;;;;34.93;16.73;;;;;;;;;;5079174;27;88042;-55
2023/10/08 03:34:20;;;;;;;26.70;14.47;;;;;;;;;;5078801;27;89724;-53
2023/10/08 03:36:49;;;;;;;28.80;16.33;;;;;;;;;;5078766;27;88139;-53
2023/10/08 03:39:18;;;;;;;29.93;17.80;;;;;;;;;;5079656;27;87787;-53
2023/10/08 03:41:59;;;;;;;36.60;19.60;;;;;;;;;;5080692;27;87509;-53
2023/10/08 03:44:29;;;;;;;29.13;17.83;;;;;;;;;;5080901;27;88435;-52
2023/10/08 03:46:58;;;;;;;33.10;18.97;;;;;;;;;;5080369;27;88240;-53
2023/10/08 03:49:28;;;;;;;38.93;18.97;;;;;;;;;;5080518;27;88911;-54
2023/10/08 03:51:57;;;;;;;28.77;18.27;;;;;;;;;;5080752;27;87485;-53
2023/10/08 03:54:34;;;;;;;30.23;17.33;;;;;;;;;;5080811;27;87236;-54
2023/10/08 03:57:03;;;;;;;29.80;18.53;;;;;;;;;;5080074;27;90014;-54
2023/10/08 03:59:33;;;;;;;27.83;16.67;;;;;;;;;;5079347;27;89823;-54
2023/10/08 04:02:13;;;;;;;32.07;18.00;;;;;;;;;;5080566;27;87684;-54
2023/10/08 04:04:53;;;;;;;34.60;18.10;;;;;;;;;;5080136;27;89850;-54
2023/10/08 04:07:44;;;;;;;35.00;18.47;;;;;;;;;;5080435;27;88983;-53
2023/10/08 04:10:49;;;;;;;30.07;18.83;;;;;;;;;;5083932;27;87896;-54
2023/10/08 04:13:18;;;;;;;32.43;19.13;;;;;;;;;;5064072;27;87489;-53
2023/10/08 04:15:46;;;;;;;32.73;19.53;;;;;;;;;;5074364;27;89531;-54
2023/10/08 04:18:15;;;;;;;30.70;18.20;;;;;;;;;;5082987;27;88295;-54
2023/10/08 04:21:00;;;;;;;30.80;18.97;;;;;;;;;;5083761;27;87792;-53
2023/10/08 04:23:29;;;;;;;25.43;17.17;;;;;;;;;;5083751;27;87905;-54
2023/10/08 04:25:58;;;;;;;33.20;18.13;;;;;;;;;;5083648;27;89658;-54
2023/10/08 04:28:34;;;;;;;31.73;17.10;;;;;;;;;;5083800;27;89327;-54
2023/10/08 04:31:14;;;;;;;39.23;18.33;;;;;;;;;;5083938;27;89140;-54
2023/10/08 04:33:44;;;;;;;27.47;17.23;;;;;;;;;;5083983;27;87510;-54
2023/10/08 04:36:18;;;;;;;35.93;18.67;;;;;;;;;;5083255;27;89639;-54
2023/10/08 04:38:47;;;;;;;38.23;20.43;;;;;;;;;;5083730;27;87903;-54
2023/10/08 04:41:19;;;;;;;30.17;16.83;;;;;;;;;;5083486;27;88881;-54
2023/10/08 04:43:49;;;;;;;33.00;18.80;;;;;;;;;;5075994;27;87569;-54
2023/10/08 04:46:33;;;;;;;29.90;17.23;;;;;;;;;;5072090;27;88632;-54
2023/10/08 04:49:07;;;;;;;32.03;19.13;;;;;;;;;;5070532;27;90184;-54
2023/10/08 04:51:43;;;;;;;27.67;18.07;;;;;;;;;;5070396;27;88829;-53
2023/10/08 04:54:16;;;;;;;29.17;17.67;;;;;;;;;;5073855;27;87549;-54
2023/10/08 04:56:44;;;;;;;33.43;19.43;;;;;;;;;;5073558;27;88155;-54
2023/10/08 04:59:13;;;;;;;30.83;18.03;;;;;;;;;;5071893;27;88172;-55
2023/10/08 05:01:47;;;;;;;34.90;19.57;;;;;;;;;;5073833;27;88939;-53
2023/10/08 05:04:26;;;;;;;37.07;19.53;;;;;;;;;;5071418;27;87942;-53
2023/10/08 05:07:17;;;;;;;34.57;19.63;;;;;;;;;;5074711;27;89638;-54
2023/10/08 05:09:52;;;;;;;36.20;19.53;;;;;;;;;;5069428;27;87610;-53
2023/10/08 05:12:34;;;;;;;34.57;19.10;;;;;;;;;;5071713;27;87904;-53
2023/10/08 05:18:08;;;;;;;40.70;20.23;;;;;;;;;;5054660;27;88491;-53
2023/10/08 05:20:59;;;;;;;35.10;20.10;;;;;;;;;;5072750;27;88045;-54
2023/10/08 05:24:08;;;;;;;36.20;20.27;;;;;;;;;;5069686;27;87858;-53
2023/10/08 05:26:44;;;;;;;27.57;18.33;;;;;;;;;;5075002;27;87637;-53
2023/10/08 05:29:51;;;;;;;28.23;17.00;;;;;;;;;;5080578;27;88544;-53
2023/10/08 05:38:12;;;;;;;35.87;20.87;;;;;;;;;;5071301;27;87491;-53
2023/10/08 05:43:48;;;;;;;35.77;18.73;;;;;;;;;;5079730;27;89051;-53
2023/10/08 05:49:15;;;;;;;28.97;17.23;;;;;;;;;;5080885;27;88323;-53
2023/10/08 05:51:56;;;;;;;32.73;18.37;;;;;;;;;;5081114;27;88245;-53
2023/10/08 05:54:36;;;;;;;35.67;19.87;;;;;;;;;;5080837;27;88025;-53
2023/10/08 05:57:14;;;;;;;33.07;19.90;;;;;;;;;;5074136;27;87996;-53
2023/10/08 06:00:21;;;;;;;32.37;17.90;;;;;;;;;;5071095;27;87523;-54
2023/10/08 06:02:48;;;;;;;31.80;16.80;;;;;;;;;;5071869;27;89682;-53
2023/10/08 06:05:23;;;;;;;27.77;15.90;;;;;;;;;;5068030;27;87487;-54
2023/10/08 06:07:56;;;;;;;30.27;15.80;;;;;;;;;;5075292;27;88982;-54
2023/10/08 06:13:13;;;;;;;28.60;14.77;;;;;;;;;;5068802;27;88521;-53
2023/10/08 06:15:48;;;;;;;22.70;14.50;;;;;;;;;;5072254;27;88085;-53
2023/10/08 06:18:18;;;;;;;28.53;15.77;;;;;;;;;;5069163;27;88984;-53
2023/10/08 06:20:45;;;;;;;23.03;13.57;;;;;;;;;;5071429;27;87957;-53
2023/10/08 06:23:18;;;;;;;20.40;14.00;;;;;;;;;;5074526;27;89647;-54
2023/10/08 06:25:46;;;;;;;30.30;15.33;;;;;;;;;;5071840;27;89079;-53
2023/10/08 06:28:19;;;;;;;25.17;16.27;;;;;;;;;;5069965;27;88986;-53
2023/10/08 06:30:48;;;;;;;32.73;17.87;;;;;;;;;;5070117;27;87572;-54
2023/10/08 06:33:17;;;;;;;26.33;14.90;;;;;;;;;;5069358;27;88761;-53
2023/10/08 06:36:01;;;;;;;29.53;16.03;;;;;;;;;;5071385;27;88901;-53
2023/10/08 06:38:30;;;;;;;27.03;15.57;;;;;;;;;;5069014;27;87586;-53
2023/10/08 06:40:59;;;;;;;31.00;18.13;;;;;;;;;;5073353;27;87676;-53
2023/10/08 06:43:30;;;;;;;31.90;17.53;;;;;;;;;;5072144;27;89604;-53
2023/10/08 06:45:58;;;;;;;37.07;18.93;;;;;;;;;;5071078;27;88065;-53
2023/10/08 06:48:29;;;;;;;30.00;18.57;;;;;;;;;;5070599;27;88322;-53
2023/10/08 06:50:58;;;;;;;32.47;18.13;;;;;;;;;;5069103;27;87606;-54
2023/10/08 06:53:29;;;;;;;29.93;16.50;;;;;;;;;;5070691;27;89838;-53
2023/10/08 06:56:03;;;;;;;30.40;17.57;;;;;;;;;;5071835;27;89297;-54
2023/10/08 06:58:33;;;;;;;30.60;18.43;;;;;;;;;;5071818;27;88693;-53
2023/10/08 07:01:04;;;;;;;35.83;17.77;;;;;;;;;;5060197;27;88061;-53
2023/10/08 07:03:33;;;;;;;33.57;18.43;;;;;;;;;;5071939;27;89675;-54
2023/10/08 07:06:10;;;;;;;30.70;18.70;;;;;;;;;;5081419;27;88045;-53
2023/10/08 07:08:42;;;;;;;32.20;19.17;;;;;;;;;;5081512;27;89093;-53
2023/10/08 07:11:11;;;;;;;32.67;18.90;;;;;;;;;;5081286;27;87617;-53
2023/10/08 07:13:42;;;;;;;27.50;18.70;;;;;;;;;;5081076;27;89534;-54
2023/10/08 07:16:12;;;;;;;43.07;18.50;;;;;;;;;;5080852;27;88071;-53
2023/10/08 07:18:41;;;;;;;33.17;18.60;;;;;;;;;;5081322;27;87328;-53
2023/10/08 07:21:12;;;;;;;33.97;18.83;;;;;;;;;;5080811;27;87632;-54
2023/10/08 07:23:55;;;;;;;28.07;17.60;;;;;;;;;;5080226;27;89931;-54
2023/10/08 07:26:25;;;;;;;26.33;17.03;;;;;;;;;;5080463;27;89181;-53
2023/10/08 07:28:55;;;;;;;32.83;17.97;;;;;;;;;;5080245;27;89441;-54
2023/10/08 07:31:24;;;;;;;31.30;17.77;;;;;;;;;;5080499;27;87649;-54
2023/10/08 07:33:56;;;;;;;33.13;18.23;;;;;;;;;;5080308;27;88340;-53
2023/10/08 07:36:24;;;;;;;30.97;18.73;;;;;;;;;;5080731;27;87965;-54
2023/10/08 07:38:53;;;;;;;29.83;17.67;;;;;;;;;;5081043;27;89026;-54
2023/10/08 07:41:22;;;;;;;26.97;13.30;;;;;;;;;;5080824;27;87352;-54
2023/10/08 07:43:55;;;;;;;24.63;14.67;;;;;;;;;;5072422;27;89669;-54
2023/10/08 07:46:26;;;;;;;29.83;16.27;;;;;;;;;;5077314;27;88817;-53
2023/10/08 07:48:54;;;;;;;23.97;13.97;;;;;;;;;;5077259;27;88879;-54
2023/10/08 07:51:23;;;;;;;24.33;12.80;;;;;;;;;;5076662;27;88497;-53
2023/10/08 07:53:54;;;;;;;16.13;10.43;;;;;;;;;;5077241;27;88628;-53
2023/10/08 07:56:23;;;;;;;17.37;11.10;;;;;;;;;;5077624;27;88968;-54
2023/10/08 07:58:52;;;;;;;26.33;15.07;;;;;;;;;;5077070;27;88973;-54
2023/10/08 08:01:21;;;;;;;27.80;15.27;;;;;;;;;;5071346;27;89136;-54
2023/10/08 08:03:50;;;;;;;26.90;14.70;;;;;;;;;;5068578;27;88767;-53
2023/10/08 08:06:19;;;;;;;28.27;15.00;;;;;;;;;;5065289;27;89203;-54
2023/10/08 08:08:47;;;;;;;22.13;14.00;;;;;;;;;;5064760;27;87802;-54
2023/10/08 08:11:17;;;;;;;28.60;15.07;;;;;;;;;;5072727;27;87770;-55
2023/10/08 08:13:46;;;;;;;26.63;15.03;;;;;;;;;;5076696;27;89783;-54
2023/10/08 08:16:18;;;;;;;26.53;14.03;;;;;;;;;;5076690;27;89026;-54
2023/10/08 08:18:47;;;;;;;27.13;14.40;;;;;;;;;;5076823;27;89479;-55
2023/10/08 08:21:19;;;;;;;25.07;13.87;;;;;;;;;;5077394;27;87688;-54
2023/10/08 08:23:48;;;;;;;27.80;14.50;;;;;;;;;;5075864;27;88415;-55
2023/10/08 08:26:27;;;;;;;29.43;13.67;;;;;;;;;;5073478;27;88180;-54
2023/10/08 08:28:56;;;;;;;25.23;13.17;;;;;;;;;;5076947;27;87726;-54
2023/10/08 08:31:25;;;;;;;18.93;11.73;;;;;;;;;;5076753;27;87693;-53
2023/10/08 08:33:56;;;;;;;67.13;37.73;;;;;;;;;;5077091;27;89666;-56
2023/10/08 08:36:28;;;;;;;184.73;82.17;;;;;;;;;;5078053;27;87947;-56
2023/10/08 08:38:57;;;;;;;199.77;78.83;;;;;;;;;;5070907;27;88932;-56
2023/10/08 08:41:25;;;;;;;183.70;80.87;;;;;;;;;;5056007;27;87990;-56
2023/10/08 08:43:58;;;;;;;192.07;81.50;;;;;;;;;;5056456;27;89591;-55
2023/10/08 08:46:29;;;;;;;150.23;62.97;;;;;;;;;;5056544;27;89328;-56
2023/10/08 08:48:57;;;;;;;144.63;63.03;;;;;;;;;;5056693;27;89743;-55
2023/10/08 08:51:27;;;;;;;175.33;71.00;;;;;;;;;;5065118;27;87629;-55
2023/10/08 08:53:56;;;;;;;136.93;56.87;;;;;;;;;;5076871;27;89535;-55
2023/10/08 08:56:24;;;;;;;152.93;59.07;;;;;;;;;;5079602;27;89052;-54
2023/10/08 08:58:53;;;;;;;118.17;53.13;;;;;;;;;;5080565;27;87871;-54
2023/10/08 09:01:21;;;;;;;102.50;48.30;;;;;;;;;;5080407;27;87722;-54
2023/10/08 09:03:50;;;;;;;109.03;45.63;;;;;;;;;;5080216;27;88365;-54
2023/10/08 09:06:19;;;;;;;95.33;43.77;;;;;;;;;;5079409;27;90108;-54
2023/10/08 09:08:49;;;;;;;87.67;43.67;;;;;;;;;;5080152;27;89793;-55
2023/10/08 09:11:18;;;;;;;88.27;39.53;;;;;;;;;;5076897;27;87548;-55
2023/10/08 09:13:46;;;;;;;85.27;37.17;;;;;;;;;;5072203;27;89735;-55
2023/10/08 09:16:15;;;;;;;71.23;33.07;;;;;;;;;;5080273;27;89087;-54
2023/10/08 09:18:45;;;;;;;65.97;32.57;;;;;;;;;;5079937;27;87909;-54
2023/10/08 09:21:15;;;;;;;67.20;29.80;;;;;;;;;;5080186;27;87471;-54
2023/10/08 09:23:48;;;;;;;61.10;30.50;;;;;;;;;;5080080;27;89596;-55
2023/10/08 09:26:19;;;;;;;57.13;27.03;;;;;;;;;;5079663;27;88893;-54
2023/10/08 09:28:49;;;;;;;51.90;26.27;;;;;;;;;;5071182;27;88026;-55
2023/10/08 09:31:18;;;;;;;41.47;22.87;;;;;;;;;;5059958;27;87970;-54
2023/10/08 09:33:54;;;;;;;46.40;24.03;;;;;;;;;;5078052;27;88426;-54
2023/10/08 09:36:31;;;;;;;37.27;18.67;;;;;;;;;;5072698;27;88386;-54
2023/10/08 09:39:00;;;;;;;30.63;14.93;;;;;;;;;;5079348;27;87904;-54
2023/10/08 09:41:31;;;;;;;25.80;11.80;;;;;;;;;;5080613;27;88201;-55
2023/10/08 09:43:59;;;;;;;16.50;8.90;;;;;;;;;;5079341;27;88207;-54
2023/10/08 09:46:31;;;;;;;14.90;7.30;;;;;;;;;;5079736;27;88199;-54
2023/10/08 09:49:01;;;;;;;15.07;6.70;;;;;;;;;;5070412;27;88855;-54
2023/10/08 09:51:30;;;;;;;14.70;7.27;;;;;;;;;;5069433;27;87493;-53
2023/10/08 09:54:01;;;;;;;13.93;6.17;;;;;;;;;;5070171;27;88545;-55
2023/10/08 09:56:31;;;;;;;12.37;6.87;;;;;;;;;;5071651;27;88092;-54
2023/10/08 09:59:00;;;;;;;12.27;6.63;;;;;;;;;;5069425;27;90221;-54
2023/10/08 10:01:28;;;;;;;10.10;6.47;;;;;;;;;;5069412;27;88643;-54
2023/10/08 10:03:59;;;;;;;11.77;6.83;;;;;;;;;;5070341;27;88590;-55
2023/10/08 10:06:28;;;;;;;10.63;5.70;;;;;;;;;;5072037;27;89182;-54
2023/10/08 10:08:57;;;;;;;11.63;5.60;;;;;;;;;;5069511;27;87718;-54
2023/10/08 10:11:27;;;;;;;13.83;6.30;;;;;;;;;;5070913;27;87707;-54
2023/10/08 10:14:01;;;;;;;15.87;6.97;;;;;;;;;;5070883;27;88688;-54
2023/10/08 10:16:29;;;;;;;12.90;6.07;;;;;;;;;;5073305;27;88315;-54
2023/10/08 10:18:58;;;;;;;11.53;5.20;;;;;;;;;;5068835;27;88279;-54
2023/10/08 10:21:28;;;;;;;10.73;6.03;;;;;;;;;;5067711;27;88222;-54
2023/10/08 10:23:57;;;;;;;7.30;5.03;;;;;;;;;;5070652;27;88221;-54
2023/10/08 10:26:28;;;;;;;10.90;5.27;;;;;;;;;;5069626;27;88231;-54
2023/10/08 10:29:14;;;;;;;9.47;5.10;;;;;;;;;;5067381;27;88828;-54
2023/10/08 10:31:44;;;;;;;11.80;5.07;;;;;;;;;;5069976;27;88724;-54
2023/10/08 10:34:15;;;;;;;13.90;5.20;;;;;;;;;;5069476;27;89574;-55
2023/10/08 10:36:48;;;;;;;10.50;4.67;;;;;;;;;;5068717;27;89901;-54
2023/10/08 10:39:17;;;;;;;13.97;5.63;;;;;;;;;;5068158;27;87921;-54
2023/10/08 10:41:45;;;;;;;11.40;4.60;;;;;;;;;;5068548;27;87660;-54
2023/10/08 10:44:14;;;;;;;7.87;4.63;;;;;;;;;;5069579;27;90129;-56
2023/10/08 10:46:50;;;;;;;10.53;5.10;;;;;;;;;;5068762;27;88946;-55
2023/10/08 10:49:21;;;;;;;9.43;4.67;;;;;;;;;;5069502;27;90126;-54
2023/10/08 10:51:57;;;;;;;8.13;3.90;;;;;;;;;;5068076;27;87656;-54
2023/10/08 10:54:25;;;;;;;11.20;4.97;;;;;;;;;;5066623;27;87635;-55
2023/10/08 10:57:03;;;;;;;7.97;4.23;;;;;;;;;;5069482;27;89304;-56
2023/10/08 10:59:36;;;;;;;5.73;3.53;;;;;;;;;;5069115;27;89187;-54
2023/10/08 11:02:20;;;;;;;8.73;4.83;;;;;;;;;;5068116;27;87607;-54
2023/10/08 11:04:49;;;;;;;11.17;5.23;;;;;;;;;;5066644;27;89822;-54
2023/10/08 11:07:19;;;;;;;7.67;3.63;;;;;;;;;;5069028;27;88067;-54
2023/10/08 11:09:48;;;;;;;5.60;4.33;;;;;;;;;;5067973;27;88922;-54
2023/10/08 11:12:22;;;;;;;8.63;3.97;;;;;;;;;;5070262;27;88016;-54
2023/10/08 11:14:52;;;;;;;7.57;3.13;;;;;;;;;;5070384;27;88448;-55
2023/10/08 11:17:26;;;;;;;5.07;3.63;;;;;;;;;;5068968;27;88492;-54
2023/10/08 11:19:55;;;;;;;6.10;4.33;;;;;;;;;;5069273;27;88783;-54
2023/10/08 11:22:23;;;;;;;5.63;3.47;;;;;;;;;;5067630;27;87494;-54
2023/10/08 11:24:53;;;;;;;5.07;3.03;;;;;;;;;;5067612;27;89759;-54
2023/10/08 11:27:29;;;;;;;8.17;3.63;;;;;;;;;;5066817;27;88216;-55
2023/10/08 11:29:59;;;;;;;5.30;3.07;;;;;;;;;;5069460;27;87969;-54
2023/10/08 11:32:32;;;;;;;8.73;3.70;;;;;;;;;;5071192;27;87548;-54
2023/10/08 11:35:15;;;;;;;6.37;2.90;;;;;;;;;;5067285;27;88665;-54
2023/10/08 11:37:48;;;;;;;9.43;3.83;;;;;;;;;;5068067;27;88959;-55
2023/10/08 11:40:28;;;;;;;5.97;3.40;;;;;;;;;;5068543;27;88878;-54
2023/10/08 11:42:58;;;;;;;7.07;2.80;;;;;;;;;;5069191;27;88360;-54
2023/10/08 11:45:28;;;;;;;6.57;3.30;;;;;;;;;;5068290;27;88604;-54
2023/10/08 11:48:03;;;;;;;6.73;3.40;;;;;;;;;;5068441;27;89298;-54
2023/10/08 11:50:31;;;;;;;3.40;2.50;;;;;;;;;;5060031;27;88934;-54
2023/10/08 11:53:02;;;;;;;8.77;3.20;;;;;;;;;;5071960;27;87679;-55
2023/10/08 11:55:35;;;;;;;9.40;3.37;;;;;;;;;;5070498;27;89892;-55
2023/10/08 11:58:09;;;;;;;4.77;2.50;;;;;;;;;;5068022;27;89111;-55
2023/10/08 12:00:43;;;;;;;6.33;3.23;;;;;;;;;;5071682;27;88810;-55
2023/10/08 12:03:17;;;;;;;5.93;2.27;;;;;;;;;;5072624;27;89106;-55
2023/10/08 12:05:48;;;;;;;6.03;2.67;;;;;;;;;;5066099;27;88511;-54
2023/10/08 12:08:18;;;;;;;6.43;3.40;;;;;;;;;;5070036;27;87923;-54
2023/10/08 12:10:47;;;;;;;4.23;3.10;;;;;;;;;;5071145;27;88426;-54
2023/10/08 12:13:18;;;;;;;3.80;2.73;;;;;;;;;;5068563;27;87748;-54
2023/10/08 12:15:47;;;;;;;6.73;3.30;;;;;;;;;;5069233;27;88675;-54
2023/10/08 12:18:24;;;;;;;6.43;2.70;;;;;;;;;;5071240;27;88385;-55
2023/10/08 12:20:53;;;;;;;7.33;3.40;;;;;;;;;;5069933;27;87852;-54
2023/10/08 12:23:25;;;;;;;7.73;2.80;;;;;;;;;;5068440;27;87600;-54
2023/10/08 12:25:55;;;;;;;4.87;2.73;;;;;;;;;;5074207;27;89810;-54
2023/10/08 12:28:24;;;;;;;6.70;2.30;;;;;;;;;;5074625;27;90023;-54
2023/10/08 12:30:53;;;;;;;5.77;3.17;;;;;;;;;;5067115;27;88680;-54
2023/10/08 12:33:24;;;;;;;7.83;2.57;;;;;;;;;;5070052;27;88268;-54
2023/10/08 12:35:54;;;;;;;8.10;2.77;;;;;;;;;;5080613;27;88707;-54
2023/10/08 12:38:22;;;;;;;5.30;3.10;;;;;;;;;;5069430;27;89087;-54
2023/10/08 12:40:53;;;;;;;8.73;2.87;;;;;;;;;;5072557;27;87569;-54
2023/10/08 12:43:22;;;;;;;9.73;3.37;;;;;;;;;;5078918;27;88061;-53
2023/10/08 12:45:52;;;;;;;8.77;3.93;;;;;;;;;;5079410;27;89495;-54
2023/10/08 12:48:24;;;;;;;11.80;3.70;;;;;;;;;;5078621;27;88604;-54
2023/10/08 12:50:57;;;;;;;5.00;3.23;;;;;;;;;;5075824;27;88138;-54
2023/10/08 12:53:33;;;;;;;5.90;3.90;;;;;;;;;;5080724;27;87873;-54
2023/10/08 12:56:05;;;;;;;7.03;3.37;;;;;;;;;;5063600;27;88550;-54
2023/10/08 12:58:41;;;;;;;8.00;3.97;;;;;;;;;;5077630;27;89501;-54
2023/10/08 13:01:10;;;;;;;7.17;5.33;;;;;;;;;;5071034;27;88053;-54
2023/10/08 13:03:42;;;;;;;8.83;4.80;;;;;;;;;;5069656;27;87661;-54
2023/10/08 13:06:14;;;;;;;9.83;4.80;;;;;;;;;;5063215;27;92153;-53
2023/10/08 13:08:43;;;;;;;8.23;4.87;;;;;;;;;;5080506;27;89098;-54
2023/10/08 13:11:11;;;;;;;10.20;5.07;;;;;;;;;;5079587;27;88706;-54
2023/10/08 13:13:41;;;;;;;14.27;5.70;;;;;;;;;;5079457;27;88217;-54
2023/10/08 13:16:09;;;;;;;11.07;6.27;;;;;;;;;;5067897;27;89663;-54
2023/10/08 13:18:43;;;;;;;19.57;6.63;;;;;;;;;;5071193;27;90176;-54
2023/10/08 13:21:11;;;;;;;16.80;7.87;;;;;;;;;;5082003;27;88750;-54
2023/10/08 13:23:41;;;;;;;15.00;8.13;;;;;;;;;;5079336;27;87697;-53
2023/10/08 13:26:09;;;;;;;14.80;8.03;;;;;;;;;;5081117;27;88377;-53
2023/10/08 13:28:38;;;;;;;12.00;6.63;;;;;;;;;;5082781;27;89189;-53
2023/10/08 13:31:10;;;;;;;15.67;7.20;;;;;;;;;;5073313;27;87747;-53
2023/10/08 13:33:42;;;;;;;18.73;8.27;;;;;;;;;;5074327;27;87620;-53
2023/10/08 13:36:13;;;;;;;11.87;5.97;;;;;;;;;;5077965;27;87697;-53
2023/10/08 13:38:47;;;;;;;14.30;7.10;;;;;;;;;;5077611;27;88224;-53
2023/10/08 13:41:16;;;;;;;12.33;6.10;;;;;;;;;;5071578;27;87913;-53
2023/10/08 13:43:46;;;;;;;19.30;7.83;;;;;;;;;;5068552;27;88467;-53
2023/10/08 13:46:15;;;;;;;13.30;6.47;;;;;;;;;;5065241;27;90022;-53
2023/10/08 13:48:47;;;;;;;9.67;6.33;;;;;;;;;;5071999;27;88076;-53
2023/10/08 13:51:20;;;;;;;12.60;5.97;;;;;;;;;;5072180;27;87908;-53
2023/10/08 13:53:52;;;;;;;12.13;6.67;;;;;;;;;;5077207;27;88063;-53
2023/10/08 13:56:24;;;;;;;14.13;6.33;;;;;;;;;;5065885;27;89592;-53
2023/10/08 13:58:57;;;;;;;13.97;7.87;;;;;;;;;;5078013;27;89182;-53
2023/10/08 14:01:26;;;;;;;10.53;7.20;;;;;;;;;;5081118;27;89119;-53
2023/10/08 14:04:04;;;;;;;11.83;6.93;;;;;;;;;;5075725;27;88390;-53
2023/10/08 14:06:34;;;;;;;11.43;5.50;;;;;;;;;;5074231;27;88665;-53
2023/10/08 14:09:07;;;;;;;14.60;6.50;;;;;;;;;;5070824;27;89200;-54
2023/10/08 14:11:35;;;;;;;12.93;6.10;;;;;;;;;;5076199;27;89851;-53
2023/10/08 14:14:07;;;;;;;10.33;5.53;;;;;;;;;;5082756;27;87678;-53
2023/10/08 14:16:36;;;;;;;10.00;6.00;;;;;;;;;;5079972;27;88869;-53
2023/10/08 14:19:05;;;;;;;10.43;5.87;;;;;;;;;;5080095;27;89126;-52
2023/10/08 14:21:40;;;;;;;11.83;5.53;;;;;;;;;;5082725;27;87897;-54
2023/10/08 14:24:15;;;;;;;10.67;5.43;;;;;;;;;;5079991;27;87524;-55
2023/10/08 14:26:43;;;;;;;15.67;6.03;;;;;;;;;;5081439;27;89825;-55
2023/10/08 14:29:14;;;;;;;9.93;5.00;;;;;;;;;;5082202;27;88290;-58
2023/10/08 14:31:48;;;;;;;8.23;4.87;;;;;;;;;;5082668;27;88878;-55
2023/10/08 14:42:53;;;;;;;11.90;5.13;;;;;;;;;;5081943;27;87885;-55
2023/10/08 14:42:57;;;;;;;11.90;4.87;;;;;;;;;;5064310;27;89334;-54
2023/10/08 14:45:31;;;;;;;9.00;4.97;;;;;;;;;;5080395;27;87657;-55
2023/10/08 14:48:00;;;;;;;9.70;5.50;;;;;;;;;;5073002;27;87498;-55
2023/10/08 14:50:32;;;;;;;18.50;6.73;;;;;;;;;;5079694;27;88482;-54
2023/10/08 14:53:04;;;;;;;13.17;5.40;;;;;;;;;;5069911;27;89198;-54
2023/10/08 14:55:35;;;;;;;7.53;4.90;;;;;;;;;;5067685;27;87599;-53
2023/10/08 14:58:07;;;;;;;16.73;4.70;;;;;;;;;;5069636;27;88657;-53
2023/10/08 15:00:37;;;;;;;10.83;4.90;;;;;;;;;;5069693;27;89827;-53
2023/10/08 15:03:05;;;;;;;8.13;4.07;;;;;;;;;;5073913;27;88936;-53
2023/10/08 15:05:37;;;;;;;8.67;3.90;;;;;;;;;;5067816;27;87646;-53
2023/10/08 15:08:09;;;;;;;11.70;4.90;;;;;;;;;;5067176;27;88643;-53
2023/10/08 15:10:39;;;;;;;7.03;3.87;;;;;;;;;;5063680;27;87841;-53
2023/10/08 15:13:07;;;;;;;9.07;4.47;;;;;;;;;;5062791;27;88780;-53
2023/10/08 15:15:36;;;;;;;9.97;4.40;;;;;;;;;;5075539;27;87745;-52
2023/10/08 15:18:05;;;;;;;9.47;4.07;;;;;;;;;;5072522;27;89315;-53
2023/10/08 15:20:36;;;;;;;11.57;5.23;;;;;;;;;;5075407;27;88050;-53